createdAt,value
2022-12-11T00:02:07.697Z,11.82
2022-12-11T00:04:36.612Z,11.10
2022-12-11T00:07:05.452Z,13.75
2022-12-11T00:09:34.291Z,12.02
2022-12-11T00:12:03.625Z,11.67
2022-12-11T00:14:32.435Z,11.85
2022-12-11T00:17:01.047Z,12.18
2022-12-11T00:19:31.428Z,13.75
2022-12-11T00:22:00.452Z,12.25
2022-12-11T00:24:29.327Z,11.57
2022-12-11T00:26:58.414Z,11.05
2022-12-11T00:29:27.472Z,12.35
2022-12-11T00:31:56.313Z,11.02
2022-12-11T00:34:25.182Z,11.45
2022-12-11T00:36:55.128Z,11.20
2022-12-11T00:39:23.976Z,11.85
2022-12-11T00:41:53.000Z,12.07
2022-12-11T00:44:21.868Z,12.43
2022-12-11T00:46:50.973Z,11.63
2022-12-11T00:49:19.810Z,11.97
2022-12-11T00:51:48.638Z,12.95
2022-12-11T00:54:18.615Z,11.05
2022-12-11T00:56:47.693Z,12.20
2022-12-11T00:59:17.347Z,14.27
2022-12-11T01:01:46.210Z,12.37
2022-12-11T01:04:14.852Z,13.57
2022-12-11T01:06:43.682Z,16.98
2022-12-11T01:09:29.814Z,19.88
2022-12-11T01:11:59.740Z,19.30
2022-12-11T01:14:28.896Z,16.60
2022-12-11T01:16:57.642Z,29.27
2022-12-11T01:19:27.355Z,28.65
2022-12-11T01:21:56.173Z,25.25
2022-12-11T01:24:25.005Z,25.23
2022-12-11T01:26:53.799Z,23.00
2022-12-11T01:29:23.731Z,26.13
2022-12-11T01:31:52.801Z,30.05
2022-12-11T01:34:21.603Z,35.00
2022-12-11T01:36:50.641Z,20.90
2022-12-11T01:39:19.478Z,23.73
2022-12-11T01:41:48.319Z,18.63
2022-12-11T01:45:09.151Z,21.00
2022-12-11T01:47:39.717Z,20.02
2022-12-11T01:50:09.203Z,22.25
2022-12-11T01:52:38.404Z,27.10
2022-12-11T01:55:10.047Z,17.88
2022-12-11T01:57:40.133Z,16.98
2022-12-11T02:00:10.663Z,15.80
2022-12-11T02:02:40.649Z,17.35
2022-12-11T02:05:10.904Z,14.00
2022-12-11T02:07:42.629Z,15.70
2022-12-11T02:10:13.345Z,18.10
2022-12-11T02:12:56.931Z,18.67
2022-12-11T02:15:35.501Z,14.73
2022-12-11T02:18:24.347Z,15.87
2022-12-11T02:21:00.668Z,15.75
2022-12-11T02:24:02.386Z,18.20
2022-12-11T02:26:50.931Z,16.10
2022-12-11T02:29:26.832Z,17.38
2022-12-11T02:31:59.136Z,17.80
2022-12-11T02:34:35.412Z,15.77
2022-12-11T02:37:13.395Z,18.10
2022-12-11T02:39:44.956Z,19.42
2022-12-11T02:42:16.279Z,15.73
2022-12-11T02:44:48.067Z,15.07
2022-12-11T02:47:19.683Z,15.38
2022-12-11T02:49:51.491Z,16.25
2022-12-11T02:52:24.037Z,15.98
2022-12-11T02:54:56.325Z,17.27
2022-12-11T02:57:32.456Z,13.87
2022-12-11T03:00:02.516Z,16.92
2022-12-11T03:02:31.372Z,17.10
2022-12-11T03:05:01.113Z,16.98
2022-12-11T03:07:36.333Z,16.63
2022-12-11T03:10:07.594Z,16.57
2022-12-11T03:12:40.750Z,14.43
2022-12-11T03:15:17.054Z,16.75
2022-12-11T03:17:57.731Z,14.07
2022-12-11T03:20:38.098Z,18.27
2022-12-11T03:23:17.477Z,20.27
2022-12-11T03:25:56.451Z,15.77
2022-12-11T03:28:31.908Z,16.10
2022-12-11T03:31:09.332Z,17.15
2022-12-11T03:33:42.328Z,16.70
2022-12-11T03:36:16.670Z,12.57
2022-12-11T03:38:50.550Z,12.85
2022-12-11T03:41:22.599Z,13.07
2022-12-11T03:43:55.324Z,13.43
2022-12-11T03:46:32.186Z,14.60
2022-12-11T03:49:06.984Z,13.90
2022-12-11T03:51:37.433Z,13.70
2022-12-11T03:54:06.866Z,14.77
2022-12-11T03:56:38.111Z,14.02
2022-12-11T03:59:07.122Z,13.95
2022-12-11T04:01:37.475Z,12.33
2022-12-11T04:04:06.791Z,12.50
2022-12-11T04:06:35.922Z,11.77
2022-12-11T04:09:04.802Z,15.93
2022-12-11T04:11:36.370Z,15.85
2022-12-11T04:14:24.096Z,13.77
2022-12-11T04:16:54.236Z,13.25
2022-12-11T04:19:38.170Z,12.77
2022-12-11T04:22:24.645Z,12.95
2022-12-11T04:24:53.813Z,13.55
2022-12-11T04:27:36.491Z,11.57
2022-12-11T04:30:08.929Z,13.35
2022-12-11T04:32:38.940Z,14.65
2022-12-11T04:35:10.616Z,12.32
2022-12-11T04:37:39.953Z,11.27
2022-12-11T04:40:13.412Z,14.47
2022-12-11T04:42:42.266Z,13.02
2022-12-11T04:45:13.201Z,12.50
2022-12-11T04:47:43.794Z,12.70
2022-12-11T04:50:14.622Z,16.13
2022-12-11T04:52:43.833Z,12.83
2022-12-11T04:55:13.698Z,10.32
2022-12-11T04:57:42.954Z,12.30
2022-12-11T05:00:14.543Z,10.02
2022-12-11T05:02:45.140Z,11.40
2022-12-11T05:05:14.459Z,13.47
2022-12-11T05:07:43.902Z,10.75
2022-12-11T05:10:13.037Z,14.13
2022-12-11T05:12:41.869Z,11.25
2022-12-11T05:15:11.854Z,11.68
2022-12-11T05:17:40.822Z,14.37
2022-12-11T05:20:12.414Z,13.40
2022-12-11T05:22:41.607Z,11.25
2022-12-11T05:25:11.185Z,10.60
2022-12-11T05:27:40.277Z,12.48
2022-12-11T05:30:11.547Z,10.83
2022-12-11T05:32:40.374Z,10.15
2022-12-11T05:35:11.487Z,12.93
2022-12-11T05:37:41.018Z,11.68
2022-12-11T05:40:13.090Z,9.15
2022-12-11T05:42:42.135Z,12.20
2022-12-11T05:45:12.352Z,10.98
2022-12-11T05:47:41.618Z,10.45
2022-12-11T05:50:12.160Z,10.85
2022-12-11T05:52:41.208Z,11.25
2022-12-11T05:55:11.093Z,12.00
2022-12-11T05:57:40.085Z,10.25
2022-12-11T06:00:10.867Z,11.73
2022-12-11T06:02:40.211Z,10.95
2022-12-11T06:05:11.286Z,9.85
2022-12-11T06:07:40.247Z,12.70
2022-12-11T06:10:10.356Z,12.73
2022-12-11T06:12:39.165Z,12.88
2022-12-11T06:15:09.485Z,11.95
2022-12-11T06:17:38.465Z,12.88
2022-12-11T06:20:08.430Z,11.50
2022-12-11T06:22:38.359Z,10.40
2022-12-11T06:25:08.571Z,10.77
2022-12-11T06:27:37.589Z,14.68
2022-12-11T06:30:08.266Z,14.82
2022-12-11T06:32:37.131Z,14.90
2022-12-11T06:35:06.928Z,13.60
2022-12-11T06:37:38.910Z,16.83
2022-12-11T06:40:10.538Z,11.40
2022-12-11T06:42:39.362Z,10.75
2022-12-11T06:45:09.840Z,12.30
2022-12-11T06:47:38.863Z,12.02
2022-12-11T06:50:08.362Z,10.18
2022-12-11T06:52:39.390Z,12.30
2022-12-11T06:55:09.571Z,11.30
2022-12-11T06:57:38.561Z,10.03
2022-12-11T07:00:08.958Z,11.00
2022-12-11T07:02:37.821Z,12.75
2022-12-11T07:05:08.137Z,12.20
2022-12-11T07:07:38.236Z,12.20
2022-12-11T07:10:08.775Z,13.00
2022-12-11T07:12:37.904Z,12.35
2022-12-11T07:15:07.688Z,13.48
2022-12-11T07:17:36.487Z,12.00
2022-12-11T07:20:06.123Z,12.57
2022-12-11T07:22:35.083Z,12.73
2022-12-11T07:25:05.796Z,11.52
2022-12-11T07:27:34.587Z,14.75
2022-12-11T07:30:03.402Z,10.35
2022-12-11T07:32:32.258Z,14.15
2022-12-11T07:35:01.187Z,13.27
2022-12-11T07:37:29.980Z,11.30
2022-12-11T07:39:58.724Z,10.15
2022-12-11T07:42:29.649Z,12.63
2022-12-11T07:44:58.487Z,14.23
2022-12-11T07:47:27.297Z,11.80
2022-12-11T07:49:56.753Z,13.43
2022-12-11T07:52:25.777Z,14.00
2022-12-11T07:54:54.614Z,12.68
2022-12-11T07:57:23.471Z,12.82
2022-12-11T07:59:53.400Z,13.70
2022-12-11T08:02:22.257Z,14.98
2022-12-11T08:04:51.215Z,14.57
2022-12-11T08:07:20.233Z,12.55
2022-12-11T08:09:49.021Z,11.98
2022-12-11T08:12:18.053Z,15.27
2022-12-11T08:14:46.923Z,15.82
2022-12-11T08:17:17.028Z,18.10
2022-12-11T08:19:45.814Z,16.40
2022-12-11T08:22:15.377Z,15.13
2022-12-11T08:24:44.510Z,21.37
2022-12-11T08:27:13.220Z,38.63
2022-12-11T08:29:41.998Z,36.42
2022-12-11T08:32:12.614Z,28.00
2022-12-11T08:34:42.635Z,19.35
2022-12-11T08:37:11.439Z,17.83
2022-12-11T08:39:40.186Z,13.32
2022-12-11T08:42:09.647Z,17.73
2022-12-11T08:44:38.203Z,21.15
2022-12-11T08:47:07.087Z,38.45
2022-12-11T08:49:36.086Z,32.93
2022-12-11T08:52:06.603Z,20.58
2022-12-11T08:54:35.164Z,25.80
2022-12-11T08:57:04.177Z,24.77
2022-12-11T08:59:32.986Z,21.20
2022-12-11T09:02:01.789Z,22.27
2022-12-11T09:04:31.362Z,21.52
2022-12-11T09:07:00.208Z,20.52
2022-12-11T09:09:30.124Z,22.42
2022-12-11T09:11:59.355Z,22.17
2022-12-11T09:14:28.162Z,21.10
2022-12-11T09:16:56.977Z,18.35
2022-12-11T09:19:31.907Z,20.52
2022-12-11T09:22:01.788Z,18.60
2022-12-11T09:24:31.987Z,20.60
2022-12-11T09:27:00.882Z,21.67
2022-12-11T09:29:29.903Z,23.60
2022-12-11T09:31:58.697Z,28.77
2022-12-11T09:34:29.600Z,26.77
2022-12-11T09:36:59.608Z,24.42
2022-12-11T09:39:28.662Z,22.93
2022-12-11T09:42:06.398Z,27.65
2022-12-11T09:44:43.371Z,30.63
2022-12-11T09:47:24.825Z,24.60
2022-12-11T09:50:03.531Z,35.03
2022-12-11T09:52:37.450Z,28.97
2022-12-11T09:55:16.751Z,29.40
2022-12-11T09:57:55.408Z,21.80
2022-12-11T10:00:33.731Z,30.63
2022-12-11T10:03:44.805Z,24.65
2022-12-11T10:06:23.155Z,24.57
2022-12-11T10:09:05.166Z,32.30
2022-12-11T10:11:57.607Z,32.75
2022-12-11T10:14:41.929Z,29.83
2022-12-11T10:17:17.219Z,24.70
2022-12-11T10:19:46.536Z,22.70
2022-12-11T10:22:22.691Z,22.38
2022-12-11T10:25:11.045Z,20.98
2022-12-11T10:27:50.903Z,22.15
2022-12-11T10:30:24.077Z,21.55
2022-12-11T10:32:56.019Z,27.23
2022-12-11T10:35:37.916Z,19.92
2022-12-11T10:38:19.306Z,18.27
2022-12-11T10:40:51.675Z,18.55
2022-12-11T10:43:20.383Z,18.88
2022-12-11T10:45:55.800Z,18.07
2022-12-11T10:48:24.408Z,17.70
2022-12-11T10:51:03.251Z,17.77
2022-12-11T10:53:33.692Z,23.15
2022-12-11T10:56:03.215Z,17.63
2022-12-11T10:58:34.928Z,23.67
2022-12-11T11:01:16.601Z,25.52
2022-12-11T11:03:56.713Z,25.23
2022-12-11T11:09:32.399Z,27.25
2022-12-11T11:12:07.417Z,29.30
2022-12-11T11:14:36.520Z,32.92
2022-12-11T11:17:07.015Z,25.10
2022-12-11T11:19:37.691Z,27.25
2022-12-11T11:22:13.607Z,22.45
2022-12-11T11:24:46.087Z,19.67
2022-12-11T11:27:24.044Z,10.77
2022-12-11T11:29:56.020Z,13.93
2022-12-11T11:32:33.586Z,14.07
2022-12-11T11:35:23.055Z,15.25
2022-12-11T11:38:05.873Z,13.07
2022-12-11T11:40:40.942Z,19.23
2022-12-11T11:43:20.755Z,28.00
2022-12-11T11:46:01.005Z,19.90
2022-12-11T11:48:38.635Z,20.30
2022-12-11T11:51:17.226Z,16.42
2022-12-11T11:53:51.075Z,12.32
2022-12-11T11:56:24.220Z,13.95
2022-12-11T11:59:05.152Z,15.20
2022-12-11T12:01:34.791Z,12.90
2022-12-11T12:04:06.304Z,17.30
2022-12-11T12:06:54.934Z,12.98
2022-12-11T12:09:39.525Z,10.52
2022-12-11T12:12:26.397Z,16.60
2022-12-11T12:15:11.717Z,23.30
2022-12-11T12:17:55.668Z,11.90
2022-12-11T12:23:48.458Z,9.07
2022-12-11T12:26:26.473Z,7.28
2022-12-11T12:29:09.789Z,9.02
2022-12-11T12:31:57.472Z,6.43
2022-12-11T12:34:48.352Z,6.30
2022-12-11T12:37:31.828Z,4.53
2022-12-11T12:40:15.869Z,4.82
2022-12-11T12:42:54.094Z,5.05
2022-12-11T12:45:30.259Z,5.47
2022-12-11T12:47:59.115Z,18.00
2022-12-11T12:50:37.795Z,18.73
2022-12-11T12:53:09.406Z,8.80
2022-12-11T12:55:38.530Z,9.98
2022-12-11T12:58:09.387Z,7.47
2022-12-11T13:00:41.600Z,15.45
2022-12-11T13:03:16.197Z,73.50
2022-12-11T13:05:57.243Z,26.73
2022-12-11T13:08:31.446Z,20.40
2022-12-11T13:11:07.360Z,35.38
2022-12-11T13:13:40.242Z,19.33
2022-12-11T13:16:25.750Z,32.58
2022-12-11T13:18:55.215Z,81.72
2022-12-11T13:21:32.529Z,18.98
2022-12-11T13:24:27.056Z,6.03
2022-12-11T13:26:56.088Z,6.32
2022-12-11T13:29:34.681Z,5.03
2022-12-11T13:32:20.566Z,5.50
2022-12-11T13:34:56.801Z,6.30
2022-12-11T13:37:31.937Z,4.60
2022-12-11T13:40:06.339Z,5.85
2022-12-11T13:42:40.779Z,5.90
2022-12-11T13:45:19.809Z,5.30
2022-12-11T13:47:48.863Z,4.38
2022-12-11T13:50:23.864Z,5.40
2022-12-11T13:52:56.226Z,4.10
2022-12-11T13:55:29.820Z,5.05
2022-12-11T13:57:59.127Z,5.53
2022-12-11T14:00:51.231Z,4.55
2022-12-11T14:03:21.375Z,5.60
2022-12-11T14:05:50.064Z,4.43
2022-12-11T14:08:26.114Z,6.50
2022-12-11T14:10:56.602Z,5.40
2022-12-11T14:13:31.074Z,4.10
2022-12-11T14:16:00.178Z,4.30
2022-12-11T14:18:33.573Z,5.15
2022-12-11T14:21:04.819Z,4.85
2022-12-11T14:23:35.837Z,4.18
2022-12-11T14:26:22.131Z,4.43
2022-12-11T14:28:51.039Z,5.50
2022-12-11T14:31:29.277Z,4.95
2022-12-11T14:34:03.529Z,6.63
2022-12-11T14:36:33.241Z,4.55
2022-12-11T14:39:04.884Z,4.40
2022-12-11T14:41:43.792Z,5.55
2022-12-11T14:44:16.964Z,5.68
2022-12-11T14:46:48.662Z,6.45
2022-12-11T14:49:24.927Z,4.50
2022-12-11T14:51:55.253Z,4.65
2022-12-11T14:54:31.352Z,4.63
2022-12-11T14:57:03.176Z,4.60
2022-12-11T14:59:33.623Z,4.78
2022-12-11T15:02:05.534Z,5.55
2022-12-11T15:04:35.271Z,5.05
2022-12-11T15:07:03.801Z,4.78
2022-12-11T15:09:41.091Z,8.32
2022-12-11T15:12:15.177Z,4.25
2022-12-11T15:14:50.948Z,4.88
2022-12-11T15:17:20.094Z,5.28
2022-12-11T15:19:51.938Z,6.28
2022-12-11T15:22:25.472Z,5.47
2022-12-11T15:24:56.092Z,6.55
2022-12-11T15:27:35.665Z,4.57
2022-12-11T15:30:18.103Z,4.57
2022-12-11T15:32:46.925Z,5.68
2022-12-11T15:35:26.240Z,3.95
2022-12-11T15:37:56.382Z,5.85
2022-12-11T15:40:25.476Z,4.65
2022-12-11T15:42:56.202Z,4.90
2022-12-11T15:45:28.682Z,4.63
2022-12-11T15:47:59.525Z,4.40
2022-12-11T15:50:30.726Z,4.82
2022-12-11T15:52:59.521Z,6.07
2022-12-11T15:55:34.921Z,6.38
2022-12-11T15:58:09.353Z,6.63
2022-12-11T16:00:37.872Z,5.05
2022-12-11T16:03:06.884Z,4.85
2022-12-11T16:05:35.728Z,5.88
2022-12-11T16:08:04.925Z,5.07
2022-12-11T16:10:33.817Z,7.03
2022-12-11T16:13:04.249Z,5.80
2022-12-11T16:15:33.157Z,5.20
2022-12-11T16:18:03.643Z,4.90
2022-12-11T16:20:33.099Z,4.90
2022-12-11T16:23:02.065Z,4.90
2022-12-11T16:25:32.369Z,4.72
2022-12-11T16:28:04.370Z,6.05
2022-12-11T16:30:33.436Z,5.70
2022-12-11T16:33:05.861Z,5.28
2022-12-11T16:35:38.375Z,6.93
2022-12-11T16:38:07.867Z,6.95
2022-12-11T16:40:36.478Z,6.03
2022-12-11T16:43:07.406Z,7.22
2022-12-11T16:45:36.505Z,6.85
2022-12-11T16:48:05.919Z,7.50
2022-12-11T16:50:36.426Z,6.03
2022-12-11T16:53:05.001Z,4.88
2022-12-11T16:55:33.795Z,5.53
2022-12-11T16:58:02.522Z,6.95
2022-12-11T17:00:32.502Z,4.82
2022-12-11T17:03:01.639Z,5.30
2022-12-11T17:05:30.525Z,5.57
2022-12-11T17:07:59.338Z,6.95
2022-12-11T17:10:29.386Z,4.70
2022-12-11T17:12:57.915Z,6.50
2022-12-11T17:15:26.472Z,6.20
2022-12-11T17:17:56.417Z,6.07
2022-12-11T17:20:25.339Z,9.90
2022-12-11T17:22:53.845Z,10.80
2022-12-11T17:25:23.330Z,9.77
2022-12-11T17:27:52.164Z,8.45
2022-12-11T17:30:21.042Z,7.47
2022-12-11T17:32:50.066Z,8.38
2022-12-11T17:35:20.167Z,7.75
2022-12-11T17:37:49.175Z,6.80
2022-12-11T17:40:18.964Z,6.72
2022-12-11T17:42:48.001Z,6.63
2022-12-11T17:45:17.032Z,6.30
2022-12-11T17:47:46.070Z,7.00
2022-12-11T17:50:15.144Z,7.07
2022-12-11T17:52:45.051Z,7.20
2022-12-11T17:55:13.808Z,7.47
2022-12-11T17:57:42.866Z,6.72
2022-12-11T18:00:13.139Z,8.57
2022-12-11T18:02:41.916Z,7.30
2022-12-11T18:05:11.893Z,7.63
2022-12-11T18:07:40.864Z,8.07
2022-12-11T18:10:11.166Z,7.15
2022-12-11T18:12:40.175Z,8.93
2022-12-11T18:15:10.968Z,10.40
2022-12-11T18:17:39.911Z,20.00
2022-12-11T18:20:12.079Z,22.88
2022-12-11T18:22:41.062Z,10.77
2022-12-11T18:25:13.169Z,13.15
2022-12-11T18:27:42.556Z,19.73
2022-12-11T18:30:14.199Z,13.68
2022-12-11T18:35:32.545Z,15.00
2022-12-11T18:38:01.550Z,11.82
2022-12-11T18:40:31.762Z,10.57
2022-12-11T18:43:00.635Z,10.13
2022-12-11T18:45:29.685Z,9.65
2022-12-11T18:47:58.836Z,8.13
2022-12-11T18:50:28.057Z,7.53
2022-12-11T18:52:57.141Z,10.33
2022-12-11T18:55:26.011Z,11.52
2022-12-11T18:57:55.950Z,10.23
2022-12-11T19:00:25.044Z,10.55
2022-12-11T19:02:53.917Z,16.58
2022-12-11T19:05:22.739Z,22.80
2022-12-11T19:07:51.594Z,18.65
2022-12-11T19:10:20.417Z,21.67
2022-12-11T19:12:49.456Z,15.55
2022-12-11T19:15:23.770Z,11.73
2022-12-11T19:17:53.090Z,12.90
2022-12-11T19:23:11.022Z,9.52
2022-12-11T19:25:44.116Z,11.13
2022-12-11T19:28:13.361Z,11.23
2022-12-11T19:30:46.227Z,18.00
2022-12-11T19:33:15.104Z,11.63
2022-12-11T19:35:44.113Z,10.77
2022-12-11T19:38:13.879Z,11.50
2022-12-11T19:40:44.022Z,10.43
2022-12-11T19:43:13.142Z,12.10
2022-12-11T19:45:42.703Z,12.80
2022-12-11T19:48:12.628Z,13.65
2022-12-11T19:50:41.646Z,13.48
2022-12-11T19:53:10.418Z,13.10
2022-12-11T19:55:39.232Z,14.93
2022-12-11T19:58:08.041Z,11.57
2022-12-11T20:00:39.196Z,12.50
2022-12-11T20:03:08.228Z,12.43
2022-12-11T20:05:38.189Z,11.25
2022-12-11T20:08:35.652Z,14.43
2022-12-11T20:10:56.323Z,18.15
2022-12-11T20:13:25.173Z,19.10
2022-12-11T20:15:54.213Z,16.13
2022-12-11T20:18:23.270Z,14.57
2022-12-11T20:20:53.466Z,17.13
2022-12-11T20:23:22.319Z,16.98
2022-12-11T20:25:55.905Z,14.52
2022-12-11T20:28:27.878Z,14.45
2022-12-11T20:30:56.896Z,13.93
2022-12-11T20:33:25.837Z,18.63
2022-12-11T20:35:56.030Z,15.32
2022-12-11T20:38:27.729Z,17.33
2022-12-11T20:41:00.126Z,16.58
2022-12-11T20:43:29.151Z,16.27
2022-12-11T20:45:57.964Z,19.60
2022-12-11T20:48:26.910Z,21.05
2022-12-11T20:51:00.792Z,19.90
2022-12-11T20:53:29.900Z,17.33
2022-12-11T20:55:58.692Z,19.92
2022-12-11T20:58:27.869Z,16.20
2022-12-11T21:00:57.507Z,17.27
2022-12-11T21:03:26.415Z,21.35
2022-12-11T21:05:56.627Z,15.80
2022-12-11T21:08:25.509Z,17.42
2022-12-11T21:10:54.361Z,14.80
2022-12-11T21:13:23.419Z,14.85
2022-12-11T21:15:56.392Z,13.18
2022-12-11T21:18:24.928Z,12.60
2022-12-11T21:20:59.143Z,13.38
2022-12-11T21:23:28.178Z,15.53
2022-12-11T21:25:56.970Z,13.00
2022-12-11T21:28:29.280Z,14.10
2022-12-11T21:31:02.488Z,11.90
2022-12-11T21:33:31.581Z,8.80
2022-12-11T21:36:02.588Z,9.60
2022-12-11T21:38:31.414Z,10.85
2022-12-11T21:41:07.376Z,11.93
2022-12-11T21:43:38.030Z,12.63
2022-12-11T21:46:14.177Z,10.60
2022-12-11T21:48:43.231Z,9.03
2022-12-11T21:51:16.951Z,12.55
2022-12-11T21:53:46.145Z,10.13
2022-12-11T21:56:18.723Z,8.35
2022-12-11T21:58:48.547Z,10.20
2022-12-11T22:01:20.615Z,8.30
2022-12-11T22:03:49.593Z,11.55
2022-12-11T22:06:20.280Z,10.18
2022-12-11T22:08:49.724Z,9.32
2022-12-11T22:11:21.663Z,9.75
2022-12-11T22:13:50.935Z,9.20
2022-12-11T22:16:19.924Z,8.45
2022-12-11T22:18:49.299Z,8.73
2022-12-11T22:21:20.591Z,7.95
2022-12-11T22:23:50.081Z,7.70
2022-12-11T22:26:24.562Z,8.93
2022-12-11T22:28:53.877Z,9.52
2022-12-11T22:31:27.952Z,9.52
2022-12-11T22:33:57.246Z,9.32
2022-12-11T22:36:28.919Z,9.07
2022-12-11T22:38:58.044Z,9.27
2022-12-11T22:41:29.363Z,9.88
2022-12-11T22:43:59.000Z,9.07
2022-12-11T22:46:30.847Z,9.25
2022-12-11T22:49:00.489Z,8.38
2022-12-11T22:51:30.450Z,9.23
2022-12-11T22:53:59.690Z,11.15
2022-12-11T22:56:28.517Z,8.55
2022-12-11T22:58:58.778Z,9.68
2022-12-11T23:01:29.099Z,9.10
2022-12-11T23:03:57.902Z,9.33
2022-12-11T23:06:27.080Z,9.30
2022-12-11T23:08:59.882Z,9.00
2022-12-11T23:11:35.066Z,8.38
2022-12-11T23:14:04.034Z,9.57
2022-12-11T23:16:33.026Z,9.83
2022-12-11T23:19:01.999Z,10.23
2022-12-11T23:21:31.158Z,7.00
2022-12-11T23:24:01.670Z,9.18
2022-12-11T23:26:30.752Z,9.23
2022-12-11T23:29:00.478Z,12.10
2022-12-11T23:31:30.199Z,9.73
2022-12-11T23:33:59.361Z,9.07
2022-12-11T23:36:29.110Z,9.18
2022-12-11T23:38:58.335Z,8.02
2022-12-11T23:41:28.298Z,8.70
2022-12-11T23:43:57.384Z,10.25
2022-12-11T23:46:27.194Z,9.68
2022-12-11T23:48:56.642Z,11.55
2022-12-11T23:51:27.080Z,10.25
2022-12-11T23:53:56.187Z,10.67
2022-12-11T23:56:29.036Z,8.95
2022-12-11T23:58:58.736Z,8.38
